Terminal Aerodrome Forecast
Issued by NWS

Home | Current Version | Previous Version | Text Only | Print | Product List | Glossary On
Versions: 1 2 3 4 5 6 7 8 9 10 11 12 13 14 15 16 17 18 19
558
FTUS46 KSGX 211735
TAFCRQ
TAF
KCRQ 211735Z 2118/2218 21009KT P6SM BKN025 BKN035
     FM212000 24009KT P6SM BKN035
     FM220200 19005KT P6SM BKN022 OVC035=

USA.gov is the U.S. government's official web portal to all federal, state and local government web resources and services.